Time;durP1;ratioP1;P1;durP2;ratioP2;P2;SDS_P1;SDS_P2;PMS_P1;PMS_P2;Temp;Humidity;BMP_temperature;BMP_pressure;BME280_temperature;BME280_humidity;BME280_pressure;Samples;Min_cycle;Max_cycle;Signal;HPM_P1;HPM_P2
2023/10/20 00:01:18;;;;;;;1.02;0.90;;;8.30;99.90;;;;;;5092493;28;20059;-64
2023/10/20 00:03:44;;;;;;;0.40;0.40;;;8.10;99.90;;;;;;5092024;28;20489;-63
2023/10/20 00:06:10;;;;;;;4.65;0.75;;;8.10;99.90;;;;;;5091929;28;20127;-61
2023/10/20 00:08:36;;;;;;;0.43;0.43;;;7.70;99.90;;;;;;5092186;28;20051;-62
2023/10/20 00:11:04;;;;;;;0.55;0.55;;;;;;;;;;5092033;28;20048;-62
2023/10/20 00:13:30;;;;;;;0.40;0.40;;;8.00;99.90;;;;;;5091635;28;20043;-63
2023/10/20 00:15:55;;;;;;;0.35;0.35;;;7.70;99.90;;;;;;5091803;28;20048;-63
2023/10/20 00:18:22;;;;;;;0.80;0.80;;;8.00;99.90;;;;;;5092796;28;20546;-62
2023/10/20 00:20:48;;;;;;;0.50;0.50;;;8.40;99.90;;;;;;5092022;28;20404;-63
2023/10/20 00:23:16;;;;;;;0.70;0.70;;;8.90;99.90;;;;;;5092530;28;20047;-62
2023/10/20 00:25:43;;;;;;;0.77;0.77;;;8.90;99.90;;;;;;5092462;28;20712;-62
2023/10/20 00:28:09;;;;;;;0.47;0.47;;;8.10;99.90;;;;;;5092629;28;20086;-63
2023/10/20 00:30:37;;;;;;;1.05;0.95;;;8.00;99.90;;;;;;5092721;28;20115;-62
2023/10/20 00:33:03;;;;;;;0.43;0.43;;;8.10;99.90;;;;;;5092774;28;20124;-64
2023/10/20 00:35:29;;;;;;;1.13;1.02;;;7.80;99.90;;;;;;5092409;28;20060;-62
2023/10/20 00:37:56;;;;;;;0.52;0.52;;;9.00;99.90;;;;;;5092043;28;20127;-63
2023/10/20 00:40:22;;;;;;;0.60;0.60;;;8.10;99.90;;;;;;5092480;28;20055;-62
2023/10/20 00:42:47;;;;;;;0.30;0.30;;;7.70;99.90;;;;;;5092700;28;20391;-63
2023/10/20 00:45:13;;;;;;;0.22;0.22;;;7.80;99.90;;;;;;5092128;28;20051;-62
2023/10/20 00:47:40;;;;;;;0.55;0.55;;;7.70;99.90;;;;;;5092329;28;20051;-63
2023/10/20 00:50:11;;;;;;;0.57;0.57;;;8.40;99.90;;;;;;5091854;28;20062;-62
2023/10/20 00:52:38;;;;;;;0.47;0.47;;;7.90;99.90;;;;;;5091887;28;20048;-63
2023/10/20 00:55:08;;;;;;;0.40;0.40;;;8.20;99.90;;;;;;5091658;28;20051;-62
2023/10/20 00:57:38;;;;;;;0.55;0.55;;;8.10;99.90;;;;;;5091905;28;20048;-62
2023/10/20 01:00:08;;;;;;;0.22;0.22;;;8.00;99.90;;;;;;5091909;28;20044;-62
2023/10/20 01:02:36;;;;;;;0.50;0.50;;;8.00;99.90;;;;;;5091558;28;20055;-62
2023/10/20 01:05:05;;;;;;;0.35;0.35;;;7.80;99.90;;;;;;5091584;28;20488;-62
2023/10/20 01:07:32;;;;;;;1.38;0.60;;;8.10;99.90;;;;;;5091975;28;20084;-63
2023/10/20 01:10:04;;;;;;;0.90;0.88;;;7.70;99.90;;;;;;5091684;28;20088;-62
2023/10/20 01:12:31;;;;;;;0.88;0.88;;;8.30;99.90;;;;;;5091760;28;20055;-62
2023/10/20 01:14:58;;;;;;;1.90;0.93;;;8.20;99.90;;;;;;5090478;28;20480;-62
2023/10/20 01:17:29;;;;;;;0.82;0.82;;;8.00;99.90;;;;;;5091442;28;20051;-62
2023/10/20 01:19:55;;;;;;;0.22;0.22;;;8.00;99.90;;;;;;5091712;28;20052;-63
2023/10/20 01:22:21;;;;;;;0.52;0.45;;;8.40;99.90;;;;;;5091558;28;20123;-63
2023/10/20 01:24:47;;;;;;;0.52;0.52;;;8.10;99.90;;;;;;5091655;28;20044;-62
2023/10/20 01:27:13;;;;;;;0.40;0.40;;;8.10;99.90;;;;;;5091469;28;20081;-61
2023/10/20 01:29:39;;;;;;;0.65;0.65;;;8.20;99.90;;;;;;5090898;28;20051;-62
2023/10/20 01:32:04;;;;;;;0.40;0.40;;;8.20;99.90;;;;;;5091287;28;20350;-62
2023/10/20 01:34:31;;;;;;;0.40;0.40;;;8.40;99.90;;;;;;5091854;28;20052;-62
2023/10/20 01:36:56;;;;;;;;;;;8.00;99.90;;;;;;5091834;28;20052;-63
2023/10/20 01:39:22;;;;;;;1.08;1.02;;;7.90;99.90;;;;;;5091203;28;19942;-63
2023/10/20 01:41:48;;;;;;;0.40;0.40;;;8.00;99.90;;;;;;5090302;28;20051;-62
2023/10/20 01:44:14;;;;;;;0.47;0.47;;;7.70;99.90;;;;;;5090548;28;20472;-61
2023/10/20 01:46:48;;;;;;;2.92;0.77;;;8.10;99.90;;;;;;5091057;28;20047;-62
2023/10/20 01:49:14;;;;;;;0.43;0.43;;;8.10;99.90;;;;;;5091147;28;20047;-62
2023/10/20 01:51:39;;;;;;;0.35;0.35;;;7.80;99.90;;;;;;5090610;28;20133;-62
2023/10/20 01:54:06;;;;;;;1.48;1.33;;;7.90;99.90;;;;;;5090943;28;20373;-63
2023/10/20 01:56:31;;;;;;;;;;;8.40;99.90;;;;;;5091330;28;20048;-63
2023/10/20 01:58:57;;;;;;;0.68;0.68;;;7.70;99.90;;;;;;5090165;28;19927;-62
2023/10/20 02:01:23;;;;;;;0.35;0.35;;;8.00;99.90;;;;;;5090643;28;20142;-62
2023/10/20 02:03:49;;;;;;;0.30;0.30;;;8.20;99.90;;;;;;5090651;28;20066;-62
2023/10/20 02:06:18;;;;;;;0.43;0.43;;;9.00;99.90;;;;;;5090144;28;20534;-62
2023/10/20 02:08:44;;;;;;;0.75;0.47;;;8.30;99.90;;;;;;5090415;28;20083;-63
2023/10/20 02:11:10;;;;;;;1.05;1.05;;;7.90;99.90;;;;;;5090651;28;20541;-62
2023/10/20 02:13:38;;;;;;;0.68;0.68;;;7.80;99.90;;;;;;5090445;28;20048;-62
2023/10/20 02:16:06;;;;;;;0.47;0.47;;;7.90;99.90;;;;;;5089671;28;20044;-62
2023/10/20 02:18:32;;;;;;;1.23;1.13;;;7.70;99.90;;;;;;5090270;28;20063;-62
2023/10/20 02:21:07;;;;;;;0.88;0.88;;;8.40;99.90;;;;;;5090970;28;20040;-63
2023/10/20 02:23:34;;;;;;;1.30;1.10;;;8.00;99.90;;;;;;5090518;28;20044;-62
2023/10/20 02:26:02;;;;;;;0.50;0.50;;;8.10;99.90;;;;;;5090946;28;20040;-61
2023/10/20 02:28:28;;;;;;;0.65;0.65;;;7.90;99.90;;;;;;5090579;28;20055;-62
2023/10/20 02:30:57;;;;;;;1.33;0.90;;;7.90;99.90;;;;;;5090661;28;20048;-62
2023/10/20 02:33:23;;;;;;;1.00;0.93;;;8.10;99.90;;;;;;5090666;28;20381;-62
2023/10/20 02:35:49;;;;;;;1.50;1.05;;;7.50;99.90;;;;;;5090565;28;20103;-61
2023/10/20 02:38:14;;;;;;;1.35;1.25;;;7.80;99.90;;;;;;5090105;28;20044;-63
2023/10/20 02:40:49;;;;;;;1.00;1.00;;;7.70;99.90;;;;;;5092713;28;20052;-63
2023/10/20 02:43:14;;;;;;;0.95;0.95;;;8.30;99.90;;;;;;5094750;28;20109;-62
2023/10/20 02:45:47;;;;;;;1.75;1.65;;;7.90;99.90;;;;;;5094501;28;20036;-62
2023/10/20 02:48:13;;;;;;;0.95;0.88;;;7.90;99.90;;;;;;5094889;28;20097;-62
2023/10/20 02:50:39;;;;;;;1.17;1.08;;;7.70;99.90;;;;;;5094584;28;20123;-63
2023/10/20 02:53:05;;;;;;;1.05;0.95;;;7.80;99.90;;;;;;5093006;28;20144;-62
2023/10/20 02:55:31;;;;;;;4.72;2.08;;;8.80;99.90;;;;;;5094551;28;20060;-63
2023/10/20 02:57:57;;;;;;;2.22;0.93;;;8.10;99.90;;;;;;5094231;28;20052;-63
2023/10/20 03:00:23;;;;;;;4.00;1.92;;;8.30;99.90;;;;;;5094198;28;20100;-62
2023/10/20 03:02:48;;;;;;;1.80;1.70;;;7.60;99.90;;;;;;5092761;28;20052;-62
2023/10/20 03:05:15;;;;;;;1.02;1.00;;;7.80;99.90;;;;;;5094153;28;20120;-63
2023/10/20 03:07:41;;;;;;;0.95;0.95;;;7.80;99.90;;;;;;5094086;28;20054;-62
2023/10/20 03:10:08;;;;;;;1.52;1.42;;;8.00;99.90;;;;;;5094031;28;20483;-62
2023/10/20 03:12:34;;;;;;;1.88;1.77;;;8.00;99.90;;;;;;5094054;28;20102;-63
2023/10/20 03:14:59;;;;;;;2.50;1.83;;;7.70;99.90;;;;;;5094442;28;20504;-63
2023/10/20 03:17:26;;;;;;;6.15;1.27;;;7.90;99.90;;;;;;5094085;28;20054;-62
2023/10/20 03:19:52;;;;;;;2.00;1.80;;;7.90;99.90;;;;;;5093596;28;20048;-61
2023/10/20 03:22:18;;;;;;;1.50;1.40;;;7.90;99.90;;;;;;5094062;28;20055;-62
2023/10/20 03:24:43;;;;;;;3.00;2.72;;;7.70;99.90;;;;;;5093341;28;20052;-62
2023/10/20 03:27:09;;;;;;;2.70;1.67;;;7.40;99.90;;;;;;5093833;28;20058;-63
2023/10/20 03:29:36;;;;;;;0.75;0.75;;;7.20;99.90;;;;;;5093499;28;20052;-63
2023/10/20 03:32:03;;;;;;;2.88;1.27;;;8.10;99.90;;;;;;5093581;28;20082;-63
2023/10/20 03:34:31;;;;;;;1.98;1.88;;;7.60;99.90;;;;;;5093429;28;20036;-62
2023/10/20 03:36:57;;;;;;;1.60;1.50;;;7.70;99.90;;;;;;5093520;28;20036;-63
2023/10/20 03:39:23;;;;;;;1.48;1.38;;;7.90;99.90;;;;;;5093285;28;20495;-63
2023/10/20 03:41:52;;;;;;;;;;;7.30;99.90;;;;;;5093418;28;20044;-62
2023/10/20 03:44:21;;;;;;;1.40;1.30;;;7.60;99.90;;;;;;5093123;28;20380;-63
2023/10/20 03:46:49;;;;;;;1.88;1.75;;;7.70;99.90;;;;;;5093272;28;20055;-62
2023/10/20 03:49:16;;;;;;;1.65;1.55;;;7.70;99.90;;;;;;5093652;28;20410;-62
2023/10/20 03:51:51;;;;;;;1.52;0.95;;;7.90;99.90;;;;;;5092373;28;20491;-62
2023/10/20 03:54:24;;;;;;;1.75;1.20;;;8.00;99.90;;;;;;5093389;28;20083;-63
2023/10/20 03:56:50;;;;;;;1.85;1.40;;;8.00;99.90;;;;;;5092331;28;20091;-62
2023/10/20 03:59:16;;;;;;;1.77;1.63;;;7.70;99.90;;;;;;5093049;28;20083;-62
2023/10/20 04:01:42;;;;;;;0.75;0.75;;;7.90;99.90;;;;;;5093197;28;20404;-61
2023/10/20 04:04:11;;;;;;;1.88;1.58;;;8.00;99.90;;;;;;5092645;28;20056;-63
2023/10/20 04:06:37;;;;;;;1.55;1.38;;;7.70;99.90;;;;;;5093260;28;20044;-61
2023/10/20 04:09:09;;;;;;;0.80;0.80;;;7.80;99.90;;;;;;5092995;28;20055;-61
2023/10/20 04:11:38;;;;;;;0.95;0.75;;;7.80;99.90;;;;;;5092949;28;20130;-61
2023/10/20 04:14:06;;;;;;;0.93;0.70;;;8.00;99.90;;;;;;5092781;28;20097;-64
2023/10/20 04:16:42;;;;;;;4.80;1.80;;;7.90;99.90;;;;;;5092662;28;20052;-62
2023/10/20 04:19:12;;;;;;;1.97;1.77;;;7.70;99.90;;;;;;5093226;28;20060;-62
2023/10/20 04:21:46;;;;;;;0.88;0.88;;;8.00;99.90;;;;;;5092956;28;20058;-62
2023/10/20 04:24:11;;;;;;;0.65;0.65;;;8.00;99.90;;;;;;5092571;28;20128;-63
2023/10/20 04:26:41;;;;;;;2.00;1.23;;;7.70;99.90;;;;;;5092628;28;20127;-62
2023/10/20 04:29:23;;;;;;;1.02;0.90;;;7.40;99.90;;;;;;5092249;28;20082;-62
2023/10/20 04:51:18;;;;;;;2.40;0.65;;;7.80;99.90;;;;;;5092172;28;20094;-62
2023/10/20 04:54:07;;;;;;;0.47;0.47;;;7.60;99.90;;;;;;5092143;28;20408;-63
2023/10/20 04:56:37;;;;;;;1.25;1.15;;;7.70;99.90;;;;;;5091909;28;20515;-62
2023/10/20 04:59:09;;;;;;;0.65;0.60;;;7.70;99.90;;;;;;5092813;28;20088;-63
2023/10/20 05:01:48;;;;;;;1.50;0.80;;;7.50;99.90;;;;;;5092076;28;20047;-63
2023/10/20 05:04:28;;;;;;;1.15;1.05;;;7.80;99.90;;;;;;5091317;28;20059;-63
2023/10/20 05:07:05;;;;;;;0.50;0.50;;;7.60;99.90;;;;;;5092115;28;20036;-63
2023/10/20 05:09:33;;;;;;;0.98;0.85;;;8.00;99.90;;;;;;5092546;28;20047;-61
2023/10/20 05:11:59;;;;;;;0.55;0.55;;;8.10;99.90;;;;;;5092283;28;20063;-62
2023/10/20 05:14:25;;;;;;;0.30;0.30;;;8.00;99.90;;;;;;5091543;28;20044;-62
2023/10/20 05:16:51;;;;;;;0.85;0.85;;;7.70;99.90;;;;;;5091856;28;20063;-62
2023/10/20 05:19:16;;;;;;;0.30;0.30;;;7.60;99.90;;;;;;5091776;28;20055;-63
2023/10/20 05:21:43;;;;;;;1.83;1.23;;;7.00;99.90;;;;;;5091258;28;20487;-62
2023/10/20 05:24:08;;;;;;;;;;;7.90;99.90;;;;;;5090995;28;20055;-62
2023/10/20 05:26:34;;;;;;;0.60;0.60;;;7.60;99.90;;;;;;5091468;28;19924;-63
2023/10/20 05:29:01;;;;;;;0.80;0.77;;;7.80;99.90;;;;;;5091871;28;20435;-62
2023/10/20 05:31:29;;;;;;;0.80;0.77;;;7.60;99.90;;;;;;5091707;28;20105;-63
2023/10/20 05:33:55;;;;;;;0.63;0.50;;;8.00;99.90;;;;;;5091710;28;20113;-62
2023/10/20 05:36:21;;;;;;;0.50;0.50;;;7.80;99.90;;;;;;5091370;28;20043;-62
2023/10/20 05:38:47;;;;;;;1.35;1.00;;;7.60;99.90;;;;;;5091753;28;20040;-62
2023/10/20 05:41:12;;;;;;;0.40;0.40;;;8.00;99.90;;;;;;5091180;28;20052;-62
2023/10/20 05:43:38;;;;;;;0.60;0.60;;;7.80;99.90;;;;;;5091320;28;20132;-62
2023/10/20 05:46:04;;;;;;;0.20;0.20;;;7.50;99.90;;;;;;5090820;28;20071;-62
2023/10/20 05:48:31;;;;;;;0.63;0.63;;;7.70;99.90;;;;;;5091179;28;20407;-62
2023/10/20 05:50:57;;;;;;;0.40;0.40;;;7.80;99.90;;;;;;5091027;28;20091;-61
2023/10/20 05:53:26;;;;;;;0.63;0.63;;;7.60;99.90;;;;;;5090941;28;20090;-62
2023/10/20 05:55:52;;;;;;;0.38;0.38;;;7.60;99.90;;;;;;5085462;28;20052;-62
2023/10/20 05:58:18;;;;;;;0.25;0.25;;;8.10;99.90;;;;;;5087833;28;20101;-62
2023/10/20 06:00:44;;;;;;;0.40;0.40;;;7.70;99.90;;;;;;5089100;28;20046;-63
2023/10/20 06:03:10;;;;;;;0.20;0.20;;;8.00;99.90;;;;;;5089767;28;20052;-63
2023/10/20 06:05:36;;;;;;;0.40;0.40;;;7.70;99.90;;;;;;5091308;28;20127;-63
2023/10/20 06:08:02;;;;;;;0.40;0.40;;;7.80;99.90;;;;;;5090912;28;20123;-62
2023/10/20 06:10:29;;;;;;;0.75;0.60;;;7.70;99.90;;;;;;5090291;28;20055;-64
2023/10/20 06:12:55;;;;;;;0.60;0.45;;;7.70;99.90;;;;;;5090383;28;20048;-63
2023/10/20 06:15:22;;;;;;;0.20;0.20;;;7.60;99.90;;;;;;5088094;28;20044;-62
2023/10/20 06:17:49;;;;;;;0.22;0.22;;;7.80;99.90;;;;;;5089859;28;20500;-62
2023/10/20 06:20:15;;;;;;;1.60;0.52;;;8.50;99.90;;;;;;5089810;28;20109;-62
2023/10/20 06:22:42;;;;;;;0.63;0.63;;;7.70;99.90;;;;;;5090054;28;20043;-62
2023/10/20 06:25:14;;;;;;;0.40;0.40;;;7.50;99.90;;;;;;5090455;28;20570;-61
2023/10/20 06:27:44;;;;;;;0.30;0.30;;;7.90;99.90;;;;;;5090580;28;20048;-63
2023/10/20 06:30:21;;;;;;;0.30;0.30;;;7.60;99.90;;;;;;5090519;28;20131;-61
2023/10/20 06:32:56;;;;;;;0.47;0.47;;;7.70;99.90;;;;;;5090745;28;20055;-62
2023/10/20 06:35:32;;;;;;;0.65;0.65;;;7.70;99.90;;;;;;5090635;28;20040;-62
2023/10/20 06:40:35;;;;;;;0.70;0.70;;;7.70;99.90;;;;;;5090534;28;20579;-62
2023/10/20 06:43:01;;;;;;;0.95;0.90;;;7.40;99.90;;;;;;5090208;28;20127;-62
2023/10/20 06:45:26;;;;;;;0.20;0.20;;;7.70;99.90;;;;;;5090555;28;20558;-62
2023/10/20 06:47:52;;;;;;;0.68;0.68;;;7.40;99.90;;;;;;5090725;28;20560;-62
2023/10/20 06:50:18;;;;;;;0.50;0.50;;;7.30;99.90;;;;;;5090528;28;20052;-62
2023/10/20 06:52:43;;;;;;;0.30;0.30;;;7.20;99.90;;;;;;5090423;28;20048;-62
2023/10/20 06:55:09;;;;;;;0.68;0.68;;;7.50;99.90;;;;;;5090445;28;20178;-62
2023/10/20 06:57:35;;;;;;;5.95;1.02;;;7.50;99.90;;;;;;5088846;28;20063;-62
2023/10/20 07:00:02;;;;;;;0.30;0.30;;;7.50;99.90;;;;;;5090299;28;20063;-62
2023/10/20 07:02:28;;;;;;;0.32;0.32;;;7.70;99.90;;;;;;5088844;28;20048;-61
2023/10/20 07:04:54;;;;;;;0.70;0.70;;;7.60;99.90;;;;;;5089012;28;20067;-61
2023/10/20 07:07:19;;;;;;;0.30;0.30;;;7.20;99.90;;;;;;5090765;28;20120;-62
2023/10/20 07:09:45;;;;;;;0.50;0.50;;;7.50;99.90;;;;;;5090295;28;20052;-63
2023/10/20 07:12:11;;;;;;;0.60;0.60;;;7.30;99.90;;;;;;5090147;28;20036;-62
2023/10/20 07:14:40;;;;;;;0.80;0.80;;;7.50;99.90;;;;;;5090679;28;20131;-62
2023/10/20 07:17:06;;;;;;;0.45;0.45;;;8.50;99.90;;;;;;5090552;28;20059;-62
2023/10/20 07:19:35;;;;;;;0.30;0.30;;;7.60;99.90;;;;;;5090784;28;20518;-62
2023/10/20 07:22:05;;;;;;;0.50;0.50;;;7.50;99.90;;;;;;5082120;28;20075;-61
2023/10/20 07:24:31;;;;;;;1.30;0.80;;;7.50;99.90;;;;;;5090024;28;20047;-62
2023/10/20 07:26:57;;;;;;;0.45;0.45;;;7.40;99.90;;;;;;5090504;28;20055;-62
2023/10/20 07:29:23;;;;;;;0.50;0.50;;;7.60;99.90;;;;;;5093826;28;20044;-62
2023/10/20 07:31:48;;;;;;;0.65;0.65;;;7.60;99.90;;;;;;5094103;28;20054;-61
2023/10/20 07:34:15;;;;;;;0.52;0.40;;;7.50;99.90;;;;;;5093960;28;20076;-63
2023/10/20 07:36:41;;;;;;;0.40;0.40;;;7.90;99.90;;;;;;5093306;28;20056;-62
2023/10/20 07:39:08;;;;;;;0.63;0.63;;;7.30;99.90;;;;;;5101162;28;20074;-62
2023/10/20 07:41:35;;;;;;;0.47;0.47;;;7.50;99.90;;;;;;5114402;28;20047;-62
2023/10/20 07:44:04;;;;;;;1.38;0.50;;;7.30;99.90;;;;;;5094541;28;20553;-62
2023/10/20 07:46:31;;;;;;;0.65;0.65;;;7.50;99.90;;;;;;5093678;28;20496;-62
2023/10/20 07:48:57;;;;;;;0.50;0.50;;;7.70;99.90;;;;;;5093693;28;20048;-63
2023/10/20 07:51:23;;;;;;;0.75;0.75;;;7.70;99.90;;;;;;5092420;28;20105;-61
2023/10/20 07:53:49;;;;;;;;;;;7.50;99.90;;;;;;5093729;28;20070;-63
2023/10/20 07:56:14;;;;;;;1.42;1.42;;;7.50;99.90;;;;;;5091427;28;19928;-62
2023/10/20 07:58:40;;;;;;;0.57;0.57;;;7.30;99.90;;;;;;5086309;28;20526;-64
2023/10/20 08:01:06;;;;;;;0.38;0.38;;;7.50;99.90;;;;;;5092741;28;20082;-62
2023/10/20 08:03:32;;;;;;;0.30;0.30;;;7.70;99.90;;;;;;5093325;28;20048;-62
2023/10/20 08:06:02;;;;;;;0.30;0.30;;;7.50;99.90;;;;;;5092798;28;20101;-62
2023/10/20 08:08:29;;;;;;;0.43;0.43;;;7.50;99.90;;;;;;5093157;28;20180;-61
2023/10/20 08:10:55;;;;;;;0.50;0.50;;;7.60;99.90;;;;;;5093356;28;20108;-61
2023/10/20 08:13:20;;;;;;;0.70;0.50;;;7.70;99.90;;;;;;5093038;28;20048;-63
2023/10/20 08:15:46;;;;;;;0.20;0.20;;;7.60;99.90;;;;;;5093516;28;20079;-64
2023/10/20 08:18:12;;;;;;;0.40;0.40;;;7.50;99.90;;;;;;5092471;28;20044;-62
2023/10/20 08:20:39;;;;;;;1.30;0.55;;;7.10;99.90;;;;;;5091894;28;20480;-62
2023/10/20 08:23:05;;;;;;;0.57;0.57;;;7.30;99.90;;;;;;5093035;28;20047;-62
2023/10/20 08:25:30;;;;;;;4.90;4.50;;;7.10;99.90;;;;;;5093351;28;20044;-63
2023/10/20 08:27:57;;;;;;;0.68;0.68;;;7.60;99.90;;;;;;5093091;28;20925;-62
2023/10/20 08:30:23;;;;;;;0.40;0.40;;;7.20;99.90;;;;;;5092998;28;20055;-61
2023/10/20 08:32:49;;;;;;;0.70;0.70;;;7.30;99.90;;;;;;5092959;28;20127;-61
2023/10/20 08:35:15;;;;;;;0.30;0.30;;;7.70;99.90;;;;;;5092682;28;20043;-61
2023/10/20 08:37:41;;;;;;;0.30;0.30;;;7.50;99.90;;;;;;5092514;28;20070;-60
2023/10/20 08:40:10;;;;;;;0.82;0.73;;;7.20;99.90;;;;;;5092659;28;20403;-62
2023/10/20 08:42:39;;;;;;;0.20;0.20;;;7.20;99.90;;;;;;5092085;28;20059;-62
2023/10/20 08:45:11;;;;;;;0.28;0.28;;;7.10;99.90;;;;;;5092390;28;20035;-63
2023/10/20 08:47:40;;;;;;;0.47;0.47;;;7.30;99.90;;;;;;5092410;28;20056;-61
2023/10/20 08:50:07;;;;;;;0.30;0.30;;;7.30;99.90;;;;;;5092218;28;20115;-61
2023/10/20 08:52:34;;;;;;;0.30;0.30;;;7.50;99.90;;;;;;5092379;28;20144;-63
2023/10/20 08:55:00;;;;;;;0.30;0.30;;;8.30;99.90;;;;;;5092363;28;20059;-62
2023/10/20 08:57:27;;;;;;;0.20;0.20;;;7.50;99.90;;;;;;5091753;28;20052;-61
2023/10/20 08:59:54;;;;;;;0.35;0.35;;;7.50;99.90;;;;;;5092101;28;20075;-63
2023/10/20 09:02:21;;;;;;;0.45;0.45;;;7.50;99.90;;;;;;5092003;28;20056;-62
2023/10/20 09:04:53;;;;;;;0.50;0.50;;;7.60;99.90;;;;;;5091711;28;20133;-64
2023/10/20 09:07:21;;;;;;;0.20;0.20;;;7.00;99.90;;;;;;5091961;28;20507;-63
2023/10/20 09:09:47;;;;;;;0.32;0.32;;;7.00;99.90;;;;;;5091631;28;20166;-62
2023/10/20 09:12:13;;;;;;;0.40;0.40;;;7.10;99.90;;;;;;5091398;28;20138;-63
2023/10/20 09:14:39;;;;;;;;;;;6.90;99.90;;;;;;5092321;28;20043;-62
2023/10/20 09:17:06;;;;;;;0.30;0.30;;;7.30;99.90;;;;;;5091655;28;19924;-61
2023/10/20 09:19:32;;;;;;;0.50;0.50;;;7.50;99.90;;;;;;5091784;28;20483;-62
2023/10/20 09:21:57;;;;;;;0.60;0.60;;;7.30;99.90;;;;;;5091560;28;20048;-62
2023/10/20 09:24:31;;;;;;;0.30;0.30;;;7.40;99.90;;;;;;5091797;28;20072;-61
2023/10/20 09:26:56;;;;;;;0.22;0.22;;;7.40;99.90;;;;;;5091401;28;20122;-60
2023/10/20 09:29:22;;;;;;;0.30;0.30;;;7.00;99.90;;;;;;5091647;28;20618;-62
2023/10/20 09:31:49;;;;;;;0.40;0.40;;;7.30;99.90;;;;;;5089993;28;20036;-61
2023/10/20 09:34:15;;;;;;;0.30;0.30;;;7.40;99.90;;;;;;5091618;28;20488;-62
2023/10/20 09:36:45;;;;;;;0.30;0.30;;;7.00;99.90;;;;;;5091581;28;20052;-61
2023/10/20 09:39:19;;;;;;;0.50;0.50;;;7.10;99.90;;;;;;5091419;28;20052;-61
2023/10/20 09:41:50;;;;;;;0.40;0.40;;;6.90;99.90;;;;;;5090954;28;20091;-62
2023/10/20 09:44:34;;;;;;;1.77;1.15;;;6.90;99.90;;;;;;5091304;28;20052;-61
2023/10/20 09:47:23;;;;;;;0.30;0.30;;;7.00;99.90;;;;;;5091227;28;20117;-61
2023/10/20 09:49:51;;;;;;;0.30;0.30;;;7.20;99.90;;;;;;5090848;28;20514;-61
2023/10/20 09:52:16;;;;;;;0.60;0.47;;;7.00;99.90;;;;;;5091402;28;20048;-61
2023/10/20 09:54:44;;;;;;;0.35;0.35;;;7.20;99.90;;;;;;5090857;28;20177;-64
2023/10/20 09:57:12;;;;;;;0.77;0.77;;;7.20;99.90;;;;;;5107609;28;20048;-62
2023/10/20 09:59:39;;;;;;;0.20;0.20;;;7.20;99.90;;;;;;5111971;28;20081;-61
2023/10/20 10:02:05;;;;;;;0.60;0.60;;;7.30;99.90;;;;;;5111746;28;20046;-62
2023/10/20 10:04:37;;;;;;;3.30;0.82;;;7.00;99.90;;;;;;5111752;28;20059;-63
2023/10/20 10:07:04;;;;;;;0.40;0.40;;;7.20;99.90;;;;;;5112049;28;20058;-62
2023/10/20 10:09:49;;;;;;;0.30;0.30;;;6.80;99.90;;;;;;5111841;28;20044;-61
2023/10/20 10:12:18;;;;;;;0.77;0.50;;;7.10;99.90;;;;;;5112057;28;20051;-62
2023/10/20 10:15:23;;;;;;;0.35;0.35;;;7.10;99.90;;;;;;5111736;28;20043;-62
2023/10/20 10:17:52;;;;;;;0.93;0.85;;;7.40;99.90;;;;;;5111757;28;20092;-62
2023/10/20 10:20:25;;;;;;;1.02;1.02;;;6.90;99.90;;;;;;5111944;28;20055;-62
2023/10/20 10:23:04;;;;;;;0.50;0.50;;;6.80;99.90;;;;;;5111835;28;20079;-61
2023/10/20 10:25:36;;;;;;;0.30;0.30;;;7.00;99.90;;;;;;5111792;28;20051;-62
2023/10/20 10:28:13;;;;;;;1.33;1.25;;;7.00;99.90;;;;;;5111778;28;20043;-62
2023/10/20 10:30:40;;;;;;;0.57;0.57;;;6.80;99.90;;;;;;5112101;28;20505;-62
2023/10/20 10:33:08;;;;;;;0.50;0.50;;;6.80;99.90;;;;;;5110895;28;20047;-62
2023/10/20 10:35:36;;;;;;;0.63;0.63;;;7.20;99.90;;;;;;5094742;28;20048;-62
2023/10/20 10:38:03;;;;;;;0.40;0.40;;;7.30;99.90;;;;;;5087332;28;20054;-62
2023/10/20 10:40:29;;;;;;;0.22;0.22;;;7.10;99.90;;;;;;5076330;28;20052;-65
2023/10/20 10:42:56;;;;;;;0.57;0.57;;;7.30;99.90;;;;;;5078069;28;20120;-62
2023/10/20 10:45:23;;;;;;;0.38;0.38;;;6.90;99.90;;;;;;5088291;28;20543;-62
2023/10/20 10:48:05;;;;;;;0.40;0.40;;;7.30;99.90;;;;;;5091194;28;20416;-62
2023/10/20 10:50:33;;;;;;;0.30;0.30;;;6.90;99.90;;;;;;5091035;28;20492;-62
2023/10/20 10:52:59;;;;;;;0.30;0.30;;;7.60;99.90;;;;;;5089998;28;20412;-64
2023/10/20 10:55:26;;;;;;;0.43;0.43;;;7.50;99.90;;;;;;5090933;28;20189;-62
2023/10/20 10:57:52;;;;;;;0.30;0.30;;;6.80;99.90;;;;;;5077323;28;20059;-62
2023/10/20 11:00:18;;;;;;;0.40;0.40;;;7.10;99.90;;;;;;5090556;28;20040;-62
2023/10/20 11:02:45;;;;;;;0.30;0.30;;;7.30;99.90;;;;;;5093296;28;20085;-62
2023/10/20 11:05:12;;;;;;;0.50;0.50;;;7.20;99.90;;;;;;5094772;28;20476;-62
2023/10/20 11:07:37;;;;;;;0.60;0.60;;;7.20;99.90;;;;;;5094612;28;20044;-61
2023/10/20 11:10:05;;;;;;;0.32;0.32;;;6.90;99.90;;;;;;5094552;28;20056;-63
2023/10/20 11:12:35;;;;;;;0.63;0.63;;;7.20;99.90;;;;;;5094458;28;20070;-62
2023/10/20 11:15:02;;;;;;;0.28;0.28;;;7.00;99.90;;;;;;5094702;28;20052;-61
2023/10/20 11:17:27;;;;;;;1.38;0.40;;;6.80;99.90;;;;;;5094513;28;20048;-63
2023/10/20 11:19:54;;;;;;;0.40;0.40;;;7.20;99.90;;;;;;5094533;28;20044;-62
2023/10/20 11:22:19;;;;;;;1.55;1.10;;;6.70;99.90;;;;;;5094428;28;20403;-62
2023/10/20 11:24:55;;;;;;;0.52;0.45;;;7.20;99.90;;;;;;5094489;28;20136;-63
2023/10/20 11:27:20;;;;;;;0.30;0.30;;;7.20;99.90;;;;;;5094398;28;20568;-62
2023/10/20 11:29:47;;;;;;;0.57;0.57;;;7.30;99.90;;;;;;5094117;28;20048;-62
2023/10/20 11:32:18;;;;;;;;;;;7.20;99.90;;;;;;5094788;28;20047;-62
2023/10/20 11:34:45;;;;;;;0.40;0.40;;;6.90;99.90;;;;;;5094248;28;20330;-63
2023/10/20 11:37:11;;;;;;;0.30;0.30;;;7.00;99.90;;;;;;5094105;28;20106;-62
2023/10/20 11:39:37;;;;;;;0.40;0.40;;;7.40;99.90;;;;;;5094488;28;20403;-62
2023/10/20 11:42:03;;;;;;;0.43;0.43;;;7.20;99.90;;;;;;5094477;28;20047;-61
2023/10/20 11:44:29;;;;;;;0.40;0.40;;;7.10;99.90;;;;;;5093764;28;20044;-63
2023/10/20 11:46:55;;;;;;;0.50;0.50;;;7.30;99.90;;;;;;5092477;28;20241;-62
2023/10/20 11:49:24;;;;;;;0.30;0.30;;;7.10;99.90;;;;;;5093925;28;20048;-63
2023/10/20 11:51:50;;;;;;;0.30;0.30;;;6.90;99.90;;;;;;5092089;28;20113;-62
2023/10/20 11:54:16;;;;;;;0.32;0.32;;;7.10;99.90;;;;;;5093493;28;20151;-62
2023/10/20 11:56:42;;;;;;;1.08;0.30;;;7.20;99.90;;;;;;5091859;28;20131;-63
2023/10/20 11:59:09;;;;;;;0.20;0.20;;;7.00;99.90;;;;;;5093814;28;20147;-62
2023/10/20 12:01:35;;;;;;;0.60;0.60;;;6.90;99.90;;;;;;5093905;28;20457;-61
2023/10/20 12:04:05;;;;;;;;;;;6.80;99.90;;;;;;5093811;28;20385;-61
2023/10/20 12:06:31;;;;;;;0.30;0.30;;;7.00;99.90;;;;;;5093906;28;19989;-62
2023/10/20 12:08:57;;;;;;;0.35;0.35;;;7.30;99.90;;;;;;5093410;28;20052;-63
2023/10/20 12:11:23;;;;;;;0.55;0.55;;;6.60;99.90;;;;;;5093736;28;20122;-62
2023/10/20 12:13:49;;;;;;;0.45;0.45;;;7.40;99.90;;;;;;5091834;28;20575;-62
2023/10/20 12:16:17;;;;;;;0.20;0.20;;;7.60;99.90;;;;;;5093594;28;20080;-62
2023/10/20 12:18:43;;;;;;;0.50;0.50;;;7.00;99.90;;;;;;5093351;28;20461;-64
2023/10/20 12:21:09;;;;;;;0.55;0.55;;;6.80;99.90;;;;;;5092561;28;20056;-62
2023/10/20 12:23:34;;;;;;;0.20;0.20;;;8.10;99.90;;;;;;5093490;28;20059;-63
2023/10/20 12:26:00;;;;;;;0.38;0.38;;;7.40;99.90;;;;;;5093406;28;20043;-62
2023/10/20 12:28:26;;;;;;;0.40;0.40;;;7.00;99.90;;;;;;5091806;28;20488;-62
2023/10/20 12:30:52;;;;;;;0.40;0.40;;;7.50;99.90;;;;;;5093174;28;20476;-62
2023/10/20 12:33:18;;;;;;;0.20;0.20;;;7.00;99.90;;;;;;5087423;28;20229;-68
2023/10/20 12:35:43;;;;;;;0.20;0.20;;;7.10;99.90;;;;;;5086193;28;20044;-62
2023/10/20 12:38:09;;;;;;;0.30;0.30;;;7.30;99.90;;;;;;5091588;28;20135;-62
2023/10/20 12:40:39;;;;;;;0.30;0.30;;;7.40;99.90;;;;;;5090150;28;20047;-60
2023/10/20 12:43:09;;;;;;;0.30;0.30;;;6.90;99.90;;;;;;5090760;28;20048;-63
2023/10/20 12:45:41;;;;;;;0.68;0.68;;;7.10;99.90;;;;;;5082894;28;20052;-64
2023/10/20 12:48:07;;;;;;;0.28;0.28;;;;;;;;;;5083222;28;20079;-62
2023/10/20 12:50:33;;;;;;;;;;;7.00;99.90;;;;;;5085093;28;20053;-61
2023/10/20 12:53:02;;;;;;;0.20;0.20;;;6.70;99.90;;;;;;5078247;28;19920;-63
2023/10/20 12:55:30;;;;;;;0.80;0.55;;;6.70;99.90;;;;;;5083875;28;20044;-60
2023/10/20 12:57:56;;;;;;;0.20;0.20;;;7.00;99.90;;;;;;5078782;28;20088;-67
2023/10/20 13:00:22;;;;;;;0.40;0.40;;;7.00;99.90;;;;;;5080534;28;20553;-62
2023/10/20 13:02:52;;;;;;;;;;;6.90;99.90;;;;;;5087286;28;20531;-61
2023/10/20 13:05:19;;;;;;;0.30;0.30;;;7.00;99.90;;;;;;5089994;28;19927;-63
2023/10/20 13:07:45;;;;;;;0.55;0.55;;;7.00;99.90;;;;;;5088329;28;20053;-63
2023/10/20 13:10:11;;;;;;;0.20;0.20;;;7.40;99.90;;;;;;5082058;28;20518;-62
2023/10/20 13:12:36;;;;;;;0.30;0.30;;;7.00;99.90;;;;;;5080606;28;20071;-61
2023/10/20 13:15:03;;;;;;;0.50;0.50;;;7.40;99.90;;;;;;5091757;28;20048;-61
2023/10/20 13:17:30;;;;;;;0.35;0.35;;;7.40;99.90;;;;;;5091503;28;20131;-61
2023/10/20 13:19:56;;;;;;;0.20;0.20;;;6.80;99.90;;;;;;5091655;28;20411;-61
2023/10/20 13:22:24;;;;;;;0.20;0.20;;;6.80;99.90;;;;;;5091586;28;20135;-61
2023/10/20 13:24:51;;;;;;;0.52;0.40;;;6.80;99.90;;;;;;5086072;28;20113;-62